sensor_id;sensor_type;location;lat;lon;timestamp;temperature;humidity
29173;DHT22;16223;47.966;-1.616;2022-07-04T00:00:50;12.3;90
29173;DHT22;16223;47.966;-1.616;2022-07-04T00:01:51;12.3;90
29173;DHT22;16223;47.966;-1.616;2022-07-04T00:02:51;12.3;90
29173;DHT22;16223;47.966;-1.616;2022-07-04T00:03:50;12.3;90
29173;DHT22;16223;47.966;-1.616;2022-07-04T00:04:51;12.3;90
29173;DHT22;16223;47.966;-1.616;2022-07-04T00:05:51;12.3;90
29173;DHT22;16223;47.966;-1.616;2022-07-04T00:06:51;12.3;90
29173;DHT22;16223;47.966;-1.616;2022-07-04T00:07:52;12.3;90
29173;DHT22;16223;47.966;-1.616;2022-07-04T00:08:51;12.3;90
29173;DHT22;16223;47.966;-1.616;2022-07-04T00:09:51;12.3;90
29173;DHT22;16223;47.966;-1.616;2022-07-04T00:10:51;12.3;90
29173;DHT22;16223;47.966;-1.616;2022-07-04T00:11:51;12.3;90
29173;DHT22;16223;47.966;-1.616;2022-07-04T00:12:51;12.3;90
29173;DHT22;16223;47.966;-1.616;2022-07-04T00:13:51;12.3;90
29173;DHT22;16223;47.966;-1.616;2022-07-04T00:14:51;12.3;90
29173;DHT22;16223;47.966;-1.616;2022-07-04T00:15:51;12.3;90
29173;DHT22;16223;47.966;-1.616;2022-07-04T00:16:51;12.3;90
29173;DHT22;16223;47.966;-1.616;2022-07-04T00:17:51;12.3;90
29173;DHT22;16223;47.966;-1.616;2022-07-04T00:18:51;12.3;90
29173;DHT22;16223;47.966;-1.616;2022-07-04T00:19:51;12.3;90
29173;DHT22;16223;47.966;-1.616;2022-07-04T00:20:51;12.3;90
29173;DHT22;16223;47.966;-1.616;2022-07-04T00:21:50;12.3;90
29173;DHT22;16223;47.966;-1.616;2022-07-04T00:22:51;12.3;90
29173;DHT22;16223;47.966;-1.616;2022-07-04T00:23:50;12.3;90
29173;DHT22;16223;47.966;-1.616;2022-07-04T00:24:51;12.3;90
29173;DHT22;16223;47.966;-1.616;2022-07-04T00:25:51;12.3;90
29173;DHT22;16223;47.966;-1.616;2022-07-04T00:26:51;12.3;90
29173;DHT22;16223;47.966;-1.616;2022-07-04T00:27:51;12.3;90
29173;DHT22;16223;47.966;-1.616;2022-07-04T00:28:51;12.3;90
29173;DHT22;16223;47.966;-1.616;2022-07-04T00:29:50;12.3;90
29173;DHT22;16223;47.966;-1.616;2022-07-04T00:30:51;12.3;90
29173;DHT22;16223;47.966;-1.616;2022-07-04T00:31:51;12.3;90
29173;DHT22;16223;47.966;-1.616;2022-07-04T00:32:51;12.3;90
29173;DHT22;16223;47.966;-1.616;2022-07-04T00:33:50;12.3;90
29173;DHT22;16223;47.966;-1.616;2022-07-04T00:34:51;12.3;90
29173;DHT22;16223;47.966;-1.616;2022-07-04T00:35:51;12.3;90
29173;DHT22;16223;47.966;-1.616;2022-07-04T00:36:51;12.3;90
29173;DHT22;16223;47.966;-1.616;2022-07-04T00:37:50;12.3;90
29173;DHT22;16223;47.966;-1.616;2022-07-04T00:38:50;12.3;90
29173;DHT22;16223;47.966;-1.616;2022-07-04T00:39:50;12.3;90
29173;DHT22;16223;47.966;-1.616;2022-07-04T00:40:51;12.2;92
29173;DHT22;16223;47.966;-1.616;2022-07-04T00:41:51;12.2;92
29173;DHT22;16223;47.966;-1.616;2022-07-04T00:42:51;12.2;92
29173;DHT22;16223;47.966;-1.616;2022-07-04T00:44:03;12.2;92
29173;DHT22;16223;47.966;-1.616;2022-07-04T00:44:51;12.2;92
29173;DHT22;16223;47.966;-1.616;2022-07-04T00:45:51;12.2;92
29173;DHT22;16223;47.966;-1.616;2022-07-04T00:46:51;12.2;92
29173;DHT22;16223;47.966;-1.616;2022-07-04T00:47:50;12.2;92
29173;DHT22;16223;47.966;-1.616;2022-07-04T00:48:50;12.2;92
29173;DHT22;16223;47.966;-1.616;2022-07-04T00:49:51;12.2;92
29173;DHT22;16223;47.966;-1.616;2022-07-04T00:50:54;12.2;92
29173;DHT22;16223;47.966;-1.616;2022-07-04T00:51:51;12.2;92
29173;DHT22;16223;47.966;-1.616;2022-07-04T00:52:51;12.2;92
29173;DHT22;16223;47.966;-1.616;2022-07-04T00:53:53;12.2;92
29173;DHT22;16223;47.966;-1.616;2022-07-04T00:54:52;12.2;92
29173;DHT22;16223;47.966;-1.616;2022-07-04T00:55:51;12.2;92
29173;DHT22;16223;47.966;-1.616;2022-07-04T00:56:51;12.2;92
29173;DHT22;16223;47.966;-1.616;2022-07-04T00:57:51;12.2;92
29173;DHT22;16223;47.966;-1.616;2022-07-04T00:58:51;12.2;92
29173;DHT22;16223;47.966;-1.616;2022-07-04T00:59:51;12.2;92
29173;DHT22;16223;47.966;-1.616;2022-07-04T01:00:51;12.2;92
29173;DHT22;16223;47.966;-1.616;2022-07-04T01:01:51;12.2;92
29173;DHT22;16223;47.966;-1.616;2022-07-04T01:02:51;12.2;92
29173;DHT22;16223;47.966;-1.616;2022-07-04T01:03:51;12.2;92
29173;DHT22;16223;47.966;-1.616;2022-07-04T01:04:51;12.2;92
29173;DHT22;16223;47.966;-1.616;2022-07-04T01:05:51;12.2;92
29173;DHT22;16223;47.966;-1.616;2022-07-04T01:06:51;12.2;92
29173;DHT22;16223;47.966;-1.616;2022-07-04T01:07:51;12.2;92
29173;DHT22;16223;47.966;-1.616;2022-07-04T01:08:51;12.2;92
29173;DHT22;16223;47.966;-1.616;2022-07-04T01:09:51;12.2;92
29173;DHT22;16223;47.966;-1.616;2022-07-04T01:10:50;12.2;92
29173;DHT22;16223;47.966;-1.616;2022-07-04T01:11:51;12.2;92
29173;DHT22;16223;47.966;-1.616;2022-07-04T01:12:51;12.2;92
29173;DHT22;16223;47.966;-1.616;2022-07-04T01:13:51;12.2;92
29173;DHT22;16223;47.966;-1.616;2022-07-04T01:14:51;12.2;92
29173;DHT22;16223;47.966;-1.616;2022-07-04T01:15:51;12.2;92
29173;DHT22;16223;47.966;-1.616;2022-07-04T01:16:51;12.2;92
29173;DHT22;16223;47.966;-1.616;2022-07-04T01:17:50;12.2;92
29173;DHT22;16223;47.966;-1.616;2022-07-04T01:18:51;12.2;92
29173;DHT22;16223;47.966;-1.616;2022-07-04T01:19:51;12.2;92
29173;DHT22;16223;47.966;-1.616;2022-07-04T01:20:51;12.2;92
29173;DHT22;16223;47.966;-1.616;2022-07-04T01:21:51;12.2;92
29173;DHT22;16223;47.966;-1.616;2022-07-04T01:22:51;12.2;92
29173;DHT22;16223;47.966;-1.616;2022-07-04T01:23:51;12.2;92
29173;DHT22;16223;47.966;-1.616;2022-07-04T01:24:50;12.2;92
29173;DHT22;16223;47.966;-1.616;2022-07-04T01:25:51;12.2;92
29173;DHT22;16223;47.966;-1.616;2022-07-04T01:26:51;12.2;92
29173;DHT22;16223;47.966;-1.616;2022-07-04T01:27:50;12.2;92
29173;DHT22;16223;47.966;-1.616;2022-07-04T01:28:50;12.2;92
29173;DHT22;16223;47.966;-1.616;2022-07-04T01:29:51;12.2;92
29173;DHT22;16223;47.966;-1.616;2022-07-04T01:30:52;12.2;92
29173;DHT22;16223;47.966;-1.616;2022-07-04T01:31:51;12.2;92
29173;DHT22;16223;47.966;-1.616;2022-07-04T01:32:50;12.2;92
29173;DHT22;16223;47.966;-1.616;2022-07-04T01:33:50;12.2;92
29173;DHT22;16223;47.966;-1.616;2022-07-04T01:34:51;12.2;92
29173;DHT22;16223;47.966;-1.616;2022-07-04T01:35:51;12.2;92
29173;DHT22;16223;47.966;-1.616;2022-07-04T01:36:50;12.2;92
29173;DHT22;16223;47.966;-1.616;2022-07-04T01:37:50;12.2;92
29173;DHT22;16223;47.966;-1.616;2022-07-04T01:38:51;12.2;92
29173;DHT22;16223;47.966;-1.616;2022-07-04T01:39:50;12.2;92
29173;DHT22;16223;47.966;-1.616;2022-07-04T01:40:51;11.9;93
29173;DHT22;16223;47.966;-1.616;2022-07-04T01:41:50;11.9;93
29173;DHT22;16223;47.966;-1.616;2022-07-04T01:42:51;11.9;93
29173;DHT22;16223;47.966;-1.616;2022-07-04T01:43:51;11.9;93
29173;DHT22;16223;47.966;-1.616;2022-07-04T01:44:51;11.9;93
29173;DHT22;16223;47.966;-1.616;2022-07-04T01:45:51;11.9;93
29173;DHT22;16223;47.966;-1.616;2022-07-04T01:46:50;11.9;93
29173;DHT22;16223;47.966;-1.616;2022-07-04T01:47:51;11.9;93
29173;DHT22;16223;47.966;-1.616;2022-07-04T01:48:50;11.9;93
29173;DHT22;16223;47.966;-1.616;2022-07-04T01:49:51;11.9;93
29173;DHT22;16223;47.966;-1.616;2022-07-04T01:50:50;11.9;93
29173;DHT22;16223;47.966;-1.616;2022-07-04T01:52:01;11.9;93
29173;DHT22;16223;47.966;-1.616;2022-07-04T01:52:50;11.9;93
29173;DHT22;16223;47.966;-1.616;2022-07-04T01:53:51;11.9;93
29173;DHT22;16223;47.966;-1.616;2022-07-04T01:54:51;11.9;93
29173;DHT22;16223;47.966;-1.616;2022-07-04T01:55:52;11.9;93
29173;DHT22;16223;47.966;-1.616;2022-07-04T01:56:51;11.9;93
29173;DHT22;16223;47.966;-1.616;2022-07-04T01:57:52;11.9;93
29173;DHT22;16223;47.966;-1.616;2022-07-04T01:58:51;11.9;93
29173;DHT22;16223;47.966;-1.616;2022-07-04T01:59:51;11.8;93
29173;DHT22;16223;47.966;-1.616;2022-07-04T02:00:51;11.8;93
29173;DHT22;16223;47.966;-1.616;2022-07-04T02:01:50;11.8;93
29173;DHT22;16223;47.966;-1.616;2022-07-04T02:02:51;11.8;93
29173;DHT22;16223;47.966;-1.616;2022-07-04T02:03:51;11.8;93
29173;DHT22;16223;47.966;-1.616;2022-07-04T02:04:51;11.8;93
29173;DHT22;16223;47.966;-1.616;2022-07-04T02:05:50;11.8;93
29173;DHT22;16223;47.966;-1.616;2022-07-04T02:06:51;11.8;93
29173;DHT22;16223;47.966;-1.616;2022-07-04T02:07:51;11.8;93
29173;DHT22;16223;47.966;-1.616;2022-07-04T02:08:51;11.8;93
29173;DHT22;16223;47.966;-1.616;2022-07-04T02:09:51;11.8;93
29173;DHT22;16223;47.966;-1.616;2022-07-04T02:10:50;11.8;93
29173;DHT22;16223;47.966;-1.616;2022-07-04T02:11:50;11.8;93
29173;DHT22;16223;47.966;-1.616;2022-07-04T02:12:51;11.8;93
29173;DHT22;16223;47.966;-1.616;2022-07-04T02:13:51;11.8;93
29173;DHT22;16223;47.966;-1.616;2022-07-04T02:14:50;11.8;93
29173;DHT22;16223;47.966;-1.616;2022-07-04T02:15:50;11.8;93
29173;DHT22;16223;47.966;-1.616;2022-07-04T02:16:51;11.8;93
29173;DHT22;16223;47.966;-1.616;2022-07-04T02:17:51;11.8;93
29173;DHT22;16223;47.966;-1.616;2022-07-04T02:18:50;11.8;93
29173;DHT22;16223;47.966;-1.616;2022-07-04T02:19:51;11.8;93
29173;DHT22;16223;47.966;-1.616;2022-07-04T02:20:50;11.8;93
29173;DHT22;16223;47.966;-1.616;2022-07-04T02:21:50;11.8;93
29173;DHT22;16223;47.966;-1.616;2022-07-04T02:22:50;11.8;93
29173;DHT22;16223;47.966;-1.616;2022-07-04T02:23:51;11.8;93
29173;DHT22;16223;47.966;-1.616;2022-07-04T02:24:51;11.8;93
29173;DHT22;16223;47.966;-1.616;2022-07-04T02:25:51;11.8;93
29173;DHT22;16223;47.966;-1.616;2022-07-04T02:26:51;11.8;93
29173;DHT22;16223;47.966;-1.616;2022-07-04T02:27:51;11.8;93
29173;DHT22;16223;47.966;-1.616;2022-07-04T02:28:51;11.8;93
29173;DHT22;16223;47.966;-1.616;2022-07-04T02:29:51;11.2;94
29173;DHT22;16223;47.966;-1.616;2022-07-04T02:30:51;11.2;94
29173;DHT22;16223;47.966;-1.616;2022-07-04T02:31:51;11.2;94
29173;DHT22;16223;47.966;-1.616;2022-07-04T02:32:52;11.2;94
29173;DHT22;16223;47.966;-1.616;2022-07-04T02:33:50;11.2;94
29173;DHT22;16223;47.966;-1.616;2022-07-04T02:34:50;11.2;94
29173;DHT22;16223;47.966;-1.616;2022-07-04T02:35:50;11.2;94
29173;DHT22;16223;47.966;-1.616;2022-07-04T02:36:51;11.2;94
29173;DHT22;16223;47.966;-1.616;2022-07-04T02:37:51;10.7;94
29173;DHT22;16223;47.966;-1.616;2022-07-04T02:38:50;10.7;94
29173;DHT22;16223;47.966;-1.616;2022-07-04T02:39:51;10.7;94
29173;DHT22;16223;47.966;-1.616;2022-07-04T02:40:51;10.7;94
29173;DHT22;16223;47.966;-1.616;2022-07-04T02:41:51;10.7;94
29173;DHT22;16223;47.966;-1.616;2022-07-04T02:42:50;10.7;94
29173;DHT22;16223;47.966;-1.616;2022-07-04T02:43:51;10.7;94
29173;DHT22;16223;47.966;-1.616;2022-07-04T02:44:51;10.7;94
29173;DHT22;16223;47.966;-1.616;2022-07-04T02:45:51;10.7;94
29173;DHT22;16223;47.966;-1.616;2022-07-04T02:46:50;10.7;94
29173;DHT22;16223;47.966;-1.616;2022-07-04T02:47:51;10.7;94
29173;DHT22;16223;47.966;-1.616;2022-07-04T02:48:50;10.7;94
29173;DHT22;16223;47.966;-1.616;2022-07-04T02:49:51;10.7;94
29173;DHT22;16223;47.966;-1.616;2022-07-04T02:50:51;10.2;95
29173;DHT22;16223;47.966;-1.616;2022-07-04T02:51:50;10.2;95
29173;DHT22;16223;47.966;-1.616;2022-07-04T02:52:50;10.2;95
29173;DHT22;16223;47.966;-1.616;2022-07-04T02:53:51;10.2;95
29173;DHT22;16223;47.966;-1.616;2022-07-04T02:54:50;10.2;95
29173;DHT22;16223;47.966;-1.616;2022-07-04T02:55:51;10.2;95
29173;DHT22;16223;47.966;-1.616;2022-07-04T02:56:51;10.2;95
29173;DHT22;16223;47.966;-1.616;2022-07-04T02:57:50;10.2;95
29173;DHT22;16223;47.966;-1.616;2022-07-04T02:58:51;10.2;95
29173;DHT22;16223;47.966;-1.616;2022-07-04T02:59:50;10.2;95
29173;DHT22;16223;47.966;-1.616;2022-07-04T03:00:50;10.2;95
29173;DHT22;16223;47.966;-1.616;2022-07-04T03:01:50;10.7;96
29173;DHT22;16223;47.966;-1.616;2022-07-04T03:02:50;10.7;96
29173;DHT22;16223;47.966;-1.616;2022-07-04T03:03:51;10.7;96
29173;DHT22;16223;47.966;-1.616;2022-07-04T03:04:51;10.7;96
29173;DHT22;16223;47.966;-1.616;2022-07-04T03:05:50;10.7;96
29173;DHT22;16223;47.966;-1.616;2022-07-04T03:06:50;10.7;96
29173;DHT22;16223;47.966;-1.616;2022-07-04T03:07:51;10.7;96
29173;DHT22;16223;47.966;-1.616;2022-07-04T03:08:52;10.7;96
29173;DHT22;16223;47.966;-1.616;2022-07-04T03:09:51;10.7;96
29173;DHT22;16223;47.966;-1.616;2022-07-04T03:10:51;10.7;96
29173;DHT22;16223;47.966;-1.616;2022-07-04T03:11:51;10.7;96
29173;DHT22;16223;47.966;-1.616;2022-07-04T03:12:51;10.2;96
29173;DHT22;16223;47.966;-1.616;2022-07-04T03:13:51;10.2;96
29173;DHT22;16223;47.966;-1.616;2022-07-04T03:14:51;10.2;96
29173;DHT22;16223;47.966;-1.616;2022-07-04T03:15:51;10.2;96
29173;DHT22;16223;47.966;-1.616;2022-07-04T03:16:51;10.2;96
29173;DHT22;16223;47.966;-1.616;2022-07-04T03:17:50;10.2;96
29173;DHT22;16223;47.966;-1.616;2022-07-04T03:18:51;10.2;96
29173;DHT22;16223;47.966;-1.616;2022-07-04T03:19:50;10.2;96
29173;DHT22;16223;47.966;-1.616;2022-07-04T03:20:51;10.2;96
29173;DHT22;16223;47.966;-1.616;2022-07-04T03:21:51;10.2;96
29173;DHT22;16223;47.966;-1.616;2022-07-04T03:22:50;10.2;96
29173;DHT22;16223;47.966;-1.616;2022-07-04T03:23:51;10.2;96
29173;DHT22;16223;47.966;-1.616;2022-07-04T03:24:52;10.2;96
29173;DHT22;16223;47.966;-1.616;2022-07-04T03:25:50;10.2;96
29173;DHT22;16223;47.966;-1.616;2022-07-04T03:26:50;10.2;96
29173;DHT22;16223;47.966;-1.616;2022-07-04T03:27:50;10.2;96
29173;DHT22;16223;47.966;-1.616;2022-07-04T03:28:50;10.2;96
29173;DHT22;16223;47.966;-1.616;2022-07-04T03:29:50;9.6;96
29173;DHT22;16223;47.966;-1.616;2022-07-04T03:30:52;9.6;96
29173;DHT22;16223;47.966;-1.616;2022-07-04T03:31:51;9.6;96
29173;DHT22;16223;47.966;-1.616;2022-07-04T03:32:50;9.6;96
29173;DHT22;16223;47.966;-1.616;2022-07-04T03:33:51;9.6;96
29173;DHT22;16223;47.966;-1.616;2022-07-04T03:34:51;9.6;96
29173;DHT22;16223;47.966;-1.616;2022-07-04T03:35:51;9.6;96
29173;DHT22;16223;47.966;-1.616;2022-07-04T03:36:51;9.6;96
29173;DHT22;16223;47.966;-1.616;2022-07-04T03:37:51;9.6;96
29173;DHT22;16223;47.966;-1.616;2022-07-04T03:38:52;9.6;96
29173;DHT22;16223;47.966;-1.616;2022-07-04T03:39:51;9.4;97
29173;DHT22;16223;47.966;-1.616;2022-07-04T03:40:52;9.4;97
29173;DHT22;16223;47.966;-1.616;2022-07-04T03:41:51;9.4;97
29173;DHT22;16223;47.966;-1.616;2022-07-04T03:42:51;9.4;97
29173;DHT22;16223;47.966;-1.616;2022-07-04T03:43:50;9.4;97
29173;DHT22;16223;47.966;-1.616;2022-07-04T03:44:50;9.4;97
29173;DHT22;16223;47.966;-1.616;2022-07-04T03:45:50;9.4;97
29173;DHT22;16223;47.966;-1.616;2022-07-04T03:46:51;9.4;97
29173;DHT22;16223;47.966;-1.616;2022-07-04T03:47:51;9.4;97
29173;DHT22;16223;47.966;-1.616;2022-07-04T03:48:51;9.4;97
29173;DHT22;16223;47.966;-1.616;2022-07-04T03:49:51;9.4;97
29173;DHT22;16223;47.966;-1.616;2022-07-04T03:50:51;9.4;97
29173;DHT22;16223;47.966;-1.616;2022-07-04T03:51:51;9.4;97
29173;DHT22;16223;47.966;-1.616;2022-07-04T03:52:51;9.4;97
29173;DHT22;16223;47.966;-1.616;2022-07-04T03:53:51;9.4;97
29173;DHT22;16223;47.966;-1.616;2022-07-04T03:54:50;9.4;97
29173;DHT22;16223;47.966;-1.616;2022-07-04T03:55:51;9.4;97
29173;DHT22;16223;47.966;-1.616;2022-07-04T03:56:51;9.4;97
29173;DHT22;16223;47.966;-1.616;2022-07-04T03:57:54;9.4;97
29173;DHT22;16223;47.966;-1.616;2022-07-04T03:58:51;9.4;97
29173;DHT22;16223;47.966;-1.616;2022-07-04T03:59:50;9.4;97
29173;DHT22;16223;47.966;-1.616;2022-07-04T04:00:51;9.4;97
29173;DHT22;16223;47.966;-1.616;2022-07-04T04:01:51;9.4;97
29173;DHT22;16223;47.966;-1.616;2022-07-04T04:02:51;9.4;97
29173;DHT22;16223;47.966;-1.616;2022-07-04T04:03:50;9.4;97
29173;DHT22;16223;47.966;-1.616;2022-07-04T04:04:50;9.4;97
29173;DHT22;16223;47.966;-1.616;2022-07-04T04:05:52;9.4;97
29173;DHT22;16223;47.966;-1.616;2022-07-04T04:06:51;9.4;97
29173;DHT22;16223;47.966;-1.616;2022-07-04T04:07:50;9.4;97
29173;DHT22;16223;47.966;-1.616;2022-07-04T04:08:51;9.4;97
29173;DHT22;16223;47.966;-1.616;2022-07-04T04:09:51;9.4;97
29173;DHT22;16223;47.966;-1.616;2022-07-04T04:10:51;9.4;97
29173;DHT22;16223;47.966;-1.616;2022-07-04T04:11:50;9.4;97
29173;DHT22;16223;47.966;-1.616;2022-07-04T04:12:51;9.4;97
29173;DHT22;16223;47.966;-1.616;2022-07-04T04:13:51;9.4;97
29173;DHT22;16223;47.966;-1.616;2022-07-04T04:14:51;9.4;97
29173;DHT22;16223;47.966;-1.616;2022-07-04T04:15:51;9.4;97
29173;DHT22;16223;47.966;-1.616;2022-07-04T04:16:51;9.4;97
29173;DHT22;16223;47.966;-1.616;2022-07-04T04:17:51;9.4;97
29173;DHT22;16223;47.966;-1.616;2022-07-04T04:18:51;9.4;97
29173;DHT22;16223;47.966;-1.616;2022-07-04T04:19:51;10.2;98
29173;DHT22;16223;47.966;-1.616;2022-07-04T04:20:51;10.2;98
29173;DHT22;16223;47.966;-1.616;2022-07-04T04:21:51;10.2;98
29173;DHT22;16223;47.966;-1.616;2022-07-04T04:22:51;10.2;98
29173;DHT22;16223;47.966;-1.616;2022-07-04T04:23:51;10.2;98
29173;DHT22;16223;47.966;-1.616;2022-07-04T04:24:51;10.2;98
29173;DHT22;16223;47.966;-1.616;2022-07-04T04:25:51;10.2;98
29173;DHT22;16223;47.966;-1.616;2022-07-04T04:26:51;10.2;98
29173;DHT22;16223;47.966;-1.616;2022-07-04T04:27:50;10.2;98
29173;DHT22;16223;47.966;-1.616;2022-07-04T04:28:50;10.2;98
29173;DHT22;16223;47.966;-1.616;2022-07-04T04:29:51;10.2;98
29173;DHT22;16223;47.966;-1.616;2022-07-04T04:30:51;10.2;98
29173;DHT22;16223;47.966;-1.616;2022-07-04T04:31:50;10.2;98
29173;DHT22;16223;47.966;-1.616;2022-07-04T04:32:50;10.2;98
29173;DHT22;16223;47.966;-1.616;2022-07-04T04:33:50;10.2;98
29173;DHT22;16223;47.966;-1.616;2022-07-04T04:34:50;10.2;98
29173;DHT22;16223;47.966;-1.616;2022-07-04T04:35:50;10.2;98
29173;DHT22;16223;47.966;-1.616;2022-07-04T04:36:50;10.2;98
29173;DHT22;16223;47.966;-1.616;2022-07-04T04:37:51;10.2;98
29173;DHT22;16223;47.966;-1.616;2022-07-04T04:38:50;10.2;98
29173;DHT22;16223;47.966;-1.616;2022-07-04T04:39:51;10.2;98
29173;DHT22;16223;47.966;-1.616;2022-07-04T04:40:51;10.2;98
29173;DHT22;16223;47.966;-1.616;2022-07-04T04:41:51;10.2;98
29173;DHT22;16223;47.966;-1.616;2022-07-04T04:42:51;10.2;98
29173;DHT22;16223;47.966;-1.616;2022-07-04T04:43:50;10.2;98
29173;DHT22;16223;47.966;-1.616;2022-07-04T04:44:50;10.2;98
29173;DHT22;16223;47.966;-1.616;2022-07-04T04:45:50;10.2;98
29173;DHT22;16223;47.966;-1.616;2022-07-04T04:46:51;10.2;98
29173;DHT22;16223;47.966;-1.616;2022-07-04T04:47:50;10.2;98
29173;DHT22;16223;47.966;-1.616;2022-07-04T04:48:51;10.2;98
29173;DHT22;16223;47.966;-1.616;2022-07-04T04:49:51;10.2;98
29173;DHT22;16223;47.966;-1.616;2022-07-04T04:50:54;10.2;98
29173;DHT22;16223;47.966;-1.616;2022-07-04T04:51:51;10.2;98
29173;DHT22;16223;47.966;-1.616;2022-07-04T04:52:51;10.2;98
29173;DHT22;16223;47.966;-1.616;2022-07-04T04:53:51;10.2;98
29173;DHT22;16223;47.966;-1.616;2022-07-04T04:54:50;10.2;98
29173;DHT22;16223;47.966;-1.616;2022-07-04T04:55:51;10.2;98
29173;DHT22;16223;47.966;-1.616;2022-07-04T04:56:51;10.2;98
29173;DHT22;16223;47.966;-1.616;2022-07-04T04:57:51;10.2;98
29173;DHT22;16223;47.966;-1.616;2022-07-04T04:58:50;10.7;98
29173;DHT22;16223;47.966;-1.616;2022-07-04T04:59:51;10.7;98
29173;DHT22;16223;47.966;-1.616;2022-07-04T05:00:51;10.7;98
29173;DHT22;16223;47.966;-1.616;2022-07-04T05:01:51;10.7;98
29173;DHT22;16223;47.966;-1.616;2022-07-04T05:02:51;10.7;98
29173;DHT22;16223;47.966;-1.616;2022-07-04T05:03:51;11.2;98
29173;DHT22;16223;47.966;-1.616;2022-07-04T05:04:51;11.2;98
29173;DHT22;16223;47.966;-1.616;2022-07-04T05:05:51;11.2;98
29173;DHT22;16223;47.966;-1.616;2022-07-04T05:06:51;11.2;98
29173;DHT22;16223;47.966;-1.616;2022-07-04T05:07:52;11.2;98
29173;DHT22;16223;47.966;-1.616;2022-07-04T05:08:52;11.7;98
29173;DHT22;16223;47.966;-1.616;2022-07-04T05:09:51;11.7;98
29173;DHT22;16223;47.966;-1.616;2022-07-04T05:10:51;11.7;98
29173;DHT22;16223;47.966;-1.616;2022-07-04T05:11:51;11.7;98
29173;DHT22;16223;47.966;-1.616;2022-07-04T05:12:51;11.7;98
29173;DHT22;16223;47.966;-1.616;2022-07-04T05:13:51;12.2;97
29173;DHT22;16223;47.966;-1.616;2022-07-04T05:14:51;12.2;97
29173;DHT22;16223;47.966;-1.616;2022-07-04T05:15:51;12.2;97
29173;DHT22;16223;47.966;-1.616;2022-07-04T05:16:51;12.2;97
29173;DHT22;16223;47.966;-1.616;2022-07-04T05:17:51;12.7;96
29173;DHT22;16223;47.966;-1.616;2022-07-04T05:18:51;12.7;96
29173;DHT22;16223;47.966;-1.616;2022-07-04T05:19:52;12.7;96
29173;DHT22;16223;47.966;-1.616;2022-07-04T05:20:51;12.7;96
29173;DHT22;16223;47.966;-1.616;2022-07-04T05:21:51;13.3;94
29173;DHT22;16223;47.966;-1.616;2022-07-04T05:22:51;13.3;94
29173;DHT22;16223;47.966;-1.616;2022-07-04T05:23:51;13.3;94
29173;DHT22;16223;47.966;-1.616;2022-07-04T05:24:51;13.3;94
29173;DHT22;16223;47.966;-1.616;2022-07-04T05:25:51;13.3;94
29173;DHT22;16223;47.966;-1.616;2022-07-04T05:26:51;13.8;92
29173;DHT22;16223;47.966;-1.616;2022-07-04T05:27:51;13.8;92
29173;DHT22;16223;47.966;-1.616;2022-07-04T05:28:51;13.8;92
29173;DHT22;16223;47.966;-1.616;2022-07-04T05:29:51;13.8;92
29173;DHT22;16223;47.966;-1.616;2022-07-04T05:30:51;14.2;89
29173;DHT22;16223;47.966;-1.616;2022-07-04T05:31:51;14.3;89
29173;DHT22;16223;47.966;-1.616;2022-07-04T05:32:51;14.3;89
29173;DHT22;16223;47.966;-1.616;2022-07-04T05:33:51;14.3;89
29173;DHT22;16223;47.966;-1.616;2022-07-04T05:34:51;14.3;89
29173;DHT22;16223;47.966;-1.616;2022-07-04T05:35:51;14.3;89
29173;DHT22;16223;47.966;-1.616;2022-07-04T05:36:51;14.3;89
29173;DHT22;16223;47.966;-1.616;2022-07-04T05:38:01;14.3;89
29173;DHT22;16223;47.966;-1.616;2022-07-04T05:38:51;14.3;89
29173;DHT22;16223;47.966;-1.616;2022-07-04T05:39:51;14.3;89
29173;DHT22;16223;47.966;-1.616;2022-07-04T05:40:51;14.3;89
29173;DHT22;16223;47.966;-1.616;2022-07-04T05:41:51;14.3;89
29173;DHT22;16223;47.966;-1.616;2022-07-04T05:42:51;14.3;89
29173;DHT22;16223;47.966;-1.616;2022-07-04T05:43:51;14.8;86
29173;DHT22;16223;47.966;-1.616;2022-07-04T05:44:51;14.8;86
29173;DHT22;16223;47.966;-1.616;2022-07-04T05:45:51;14.8;86
29173;DHT22;16223;47.966;-1.616;2022-07-04T05:46:51;14.8;86
29173;DHT22;16223;47.966;-1.616;2022-07-04T05:47:51;14.8;86
29173;DHT22;16223;47.966;-1.616;2022-07-04T05:48:51;14.8;86
29173;DHT22;16223;47.966;-1.616;2022-07-04T05:49:51;15.4;84
29173;DHT22;16223;47.966;-1.616;2022-07-04T05:50:51;15.4;84
29173;DHT22;16223;47.966;-1.616;2022-07-04T05:51:51;15.4;84
29173;DHT22;16223;47.966;-1.616;2022-07-04T05:52:51;15.4;84
29173;DHT22;16223;47.966;-1.616;2022-07-04T05:53:51;15.4;84
29173;DHT22;16223;47.966;-1.616;2022-07-04T05:54:51;15.4;84
29173;DHT22;16223;47.966;-1.616;2022-07-04T05:55:52;15.4;84
29173;DHT22;16223;47.966;-1.616;2022-07-04T05:56:54;14.8;83
29173;DHT22;16223;47.966;-1.616;2022-07-04T05:57:52;14.8;83
29173;DHT22;16223;47.966;-1.616;2022-07-04T05:58:51;14.8;83
29173;DHT22;16223;47.966;-1.616;2022-07-04T05:59:51;14.3;85
29173;DHT22;16223;47.966;-1.616;2022-07-04T06:00:51;14.3;85
29173;DHT22;16223;47.966;-1.616;2022-07-04T06:01:51;14.3;85
29173;DHT22;16223;47.966;-1.616;2022-07-04T06:02:51;14.3;85
29173;DHT22;16223;47.966;-1.616;2022-07-04T06:03:51;14.3;85
29173;DHT22;16223;47.966;-1.616;2022-07-04T06:04:51;14.3;85
29173;DHT22;16223;47.966;-1.616;2022-07-04T06:05:51;14.3;85
29173;DHT22;16223;47.966;-1.616;2022-07-04T06:06:51;14.3;85
29173;DHT22;16223;47.966;-1.616;2022-07-04T06:07:50;14.3;85
29173;DHT22;16223;47.966;-1.616;2022-07-04T06:08:51;14.3;85
29173;DHT22;16223;47.966;-1.616;2022-07-04T06:09:51;14.3;85
29173;DHT22;16223;47.966;-1.616;2022-07-04T06:10:51;14.3;85
29173;DHT22;16223;47.966;-1.616;2022-07-04T06:11:51;14.3;85
29173;DHT22;16223;47.966;-1.616;2022-07-04T06:12:51;14.3;85
29173;DHT22;16223;47.966;-1.616;2022-07-04T06:13:51;14.3;85
29173;DHT22;16223;47.966;-1.616;2022-07-04T06:14:51;14.3;85
29173;DHT22;16223;47.966;-1.616;2022-07-04T06:15:51;14.3;85
29173;DHT22;16223;47.966;-1.616;2022-07-04T06:16:52;14.3;85
29173;DHT22;16223;47.966;-1.616;2022-07-04T06:17:51;14.3;85
29173;DHT22;16223;47.966;-1.616;2022-07-04T06:18:51;14.3;85
29173;DHT22;16223;47.966;-1.616;2022-07-04T06:19:51;14.3;85
29173;DHT22;16223;47.966;-1.616;2022-07-04T06:20:51;14.3;85
29173;DHT22;16223;47.966;-1.616;2022-07-04T06:21:51;14.3;85
29173;DHT22;16223;47.966;-1.616;2022-07-04T06:22:51;14.3;85
29173;DHT22;16223;47.966;-1.616;2022-07-04T06:23:51;14.3;85
29173;DHT22;16223;47.966;-1.616;2022-07-04T06:24:54;14.3;85
29173;DHT22;16223;47.966;-1.616;2022-07-04T06:25:50;14.6;89
29173;DHT22;16223;47.966;-1.616;2022-07-04T06:26:50;14.8;88
29173;DHT22;16223;47.966;-1.616;2022-07-04T06:27:52;14.8;88
29173;DHT22;16223;47.966;-1.616;2022-07-04T06:28:50;15.4;87
29173;DHT22;16223;47.966;-1.616;2022-07-04T06:29:51;15.4;87
29173;DHT22;16223;47.966;-1.616;2022-07-04T06:30:51;15.4;87
29173;DHT22;16223;47.966;-1.616;2022-07-04T06:31:51;15.4;87
29173;DHT22;16223;47.966;-1.616;2022-07-04T06:32:51;15.9;84
29173;DHT22;16223;47.966;-1.616;2022-07-04T06:33:51;15.9;84
29173;DHT22;16223;47.966;-1.616;2022-07-04T06:34:50;15.9;84
29173;DHT22;16223;47.966;-1.616;2022-07-04T06:35:50;15.9;84
29173;DHT22;16223;47.966;-1.616;2022-07-04T06:36:51;16.4;83
29173;DHT22;16223;47.966;-1.616;2022-07-04T06:37:50;16.4;83
29173;DHT22;16223;47.966;-1.616;2022-07-04T06:38:50;16.4;83